Time;durP1;ratioP1;P1;durP2;ratioP2;P2;SDS_P1;SDS_P2;PMS_P1;PMS_P2;Temp;Humidity;BMP_temperature;BMP_pressure;BME280_temperature;BME280_humidity;BME280_pressure;Samples;Min_cycle;Max_cycle;Signal;HPM_P1;HPM_P2
2022/12/30 00:00:38;;;;;;;3.75;1.45;;;;;;;12.77;76.57;99908.75;5006040;28;20037;-67
2022/12/30 00:03:09;;;;;;;1.65;1.02;;;;;;;12.77;76.55;99914.00;5007029;28;20664;-67
2022/12/30 00:05:37;;;;;;;2.53;2.13;;;;;;;12.77;76.42;99917.44;5005730;22;20049;-69
2022/12/30 00:08:45;;;;;;;2.40;1.63;;;;;;;12.76;76.49;99913.19;5005580;28;20048;-69
2022/12/30 00:10:54;;;;;;;4.65;1.73;;;;;;;12.77;76.35;99927.94;4976260;28;20047;-69
2022/12/30 00:33:06;;;;;;;2.93;1.97;;;;;;;12.77;76.61;99943.66;5026340;28;20037;-67
2022/12/30 00:35:33;;;;;;;2.65;2.17;;;;;;;12.76;76.47;99947.25;5026084;28;20044;-67
2022/12/30 00:38:01;;;;;;;2.20;1.65;;;;;;;12.77;76.35;99942.81;5009616;28;20033;-66
2022/12/30 00:40:30;;;;;;;2.65;1.92;;;;;;;12.77;76.59;99934.97;5028812;28;20069;-66
2022/12/30 00:43:08;;;;;;;2.05;1.23;;;;;;;12.77;76.59;99943.66;5007619;28;20038;-66
2022/12/30 00:45:40;;;;;;;2.65;1.75;;;;;;;12.77;76.64;99932.34;5027600;28;20037;-66
2022/12/30 00:56:22;;;;;;;4.03;2.53;;;;;;;12.77;76.38;99916.63;5027457;28;20041;-66
2022/12/30 00:58:48;;;;;;;2.08;1.90;;;;;;;12.76;76.59;99917.56;5025062;28;20033;-67
2022/12/30 01:01:14;;;;;;;2.83;1.67;;;;;;;12.77;76.82;99921.84;5027237;28;20048;-66
2022/12/30 01:03:43;;;;;;;2.28;1.77;;;;;;;12.76;76.48;99921.03;5025268;28;20044;-67
2022/12/30 01:06:14;;;;;;;1.80;1.50;;;;;;;12.78;76.61;99934.03;5026577;28;20056;-67
2022/12/30 01:08:40;;;;;;;7.00;1.23;;;;;;;12.78;76.59;99924.38;5023967;28;20498;-66
2022/12/30 01:11:08;;;;;;;1.52;1.15;;;;;;;12.77;76.39;99932.34;5029277;28;20033;-67
2022/12/30 01:13:37;;;;;;;1.80;1.33;;;;;;;12.77;76.47;99937.59;5026447;28;20029;-67
2022/12/30 01:16:08;;;;;;;1.83;1.48;;;;;;;12.76;76.48;99936.75;5029073;28;20045;-67
2022/12/30 01:18:39;;;;;;;1.52;1.42;;;;;;;12.76;76.66;99934.13;5027639;28;20113;-67
2022/12/30 01:21:11;;;;;;;3.65;2.25;;;;;;;12.76;76.63;99947.25;5025065;28;20037;-67
2022/12/30 01:23:39;;;;;;;3.05;1.75;;;;;;;12.76;76.46;99946.38;5025481;28;20041;-67
2022/12/30 01:26:06;;;;;;;4.00;1.48;;;;;;;12.77;76.49;99958.56;5030603;28;20064;-67
2022/12/30 01:28:40;;;;;;;7.03;2.30;;;;;;;12.77;76.60;99963.78;5031376;28;20041;-67
2022/12/30 01:31:10;;;;;;;2.63;2.20;;;;;;;12.77;76.60;99974.28;5019077;28;20049;-67
2022/12/30 01:33:39;;;;;;;2.30;1.90;;;;;;;12.76;76.51;99977.84;5027309;28;20041;-66
2022/12/30 01:36:07;;;;;;;2.17;1.98;;;;;;;12.76;76.43;99985.69;5026407;28;20041;-67
2022/12/30 01:38:33;;;;;;;2.67;2.45;;;;;;;12.76;76.56;99997.03;5014494;28;20029;-66
2022/12/30 01:41:00;;;;;;;1.88;1.42;;;;;;;12.76;76.48;99999.66;5030175;28;20513;-67
2022/12/30 01:43:46;;;;;;;1.40;1.13;;;;;;;12.77;76.49;100005.72;5013171;28;20032;-67
2022/12/30 01:46:17;;;;;;;2.05;1.42;;;;;;;12.76;76.63;100019.78;5015146;28;20045;-67
2022/12/30 01:48:49;;;;;;;2.47;1.60;;;;;;;12.76;76.73;100025.00;5011894;28;20044;-67
2022/12/30 01:51:26;;;;;;;1.45;1.25;;;;;;;12.76;76.48;100027.63;5010210;28;20052;-67
2022/12/30 01:53:54;;;;;;;1.17;1.02;;;;;;;12.75;76.49;100021.56;5027472;28;20037;-67
2022/12/30 01:56:28;;;;;;;2.95;1.90;;;;;;;12.76;76.46;100019.78;5019753;28;20057;-67
2022/12/30 01:58:57;;;;;;;2.55;1.38;;;;;;;12.75;76.45;100013.72;4992452;28;20056;-67
2022/12/30 02:01:24;;;;;;;1.60;1.20;;;;;;;12.75;76.34;100018.94;5031577;28;20479;-67
2022/12/30 02:04:20;;;;;;;2.05;1.33;;;;;;;12.75;76.54;100021.56;5026477;28;20045;-67
2022/12/30 02:07:03;;;;;;;1.67;1.35;;;;;;;12.77;76.39;100022.28;5010741;28;20495;-66
2022/12/30 02:09:34;;;;;;;1.42;1.15;;;;;;;12.78;76.36;100028.38;5030618;28;20033;-67
2022/12/30 02:12:00;;;;;;;2.58;1.45;;;;;;;12.79;76.30;100030.84;5028103;28;20033;-67
2022/12/30 02:14:30;;;;;;;3.15;1.98;;;;;;;12.79;76.37;100025.59;5027832;28;20038;-67
2022/12/30 02:16:56;;;;;;;2.10;1.40;;;;;;;12.80;76.20;100023.84;5031111;28;20040;-66
2022/12/30 02:19:52;;;;;;;1.45;1.13;;;;;;;12.79;76.23;100032.66;5024937;28;20041;-67
2022/12/30 02:22:35;;;;;;;1.42;1.23;;;;;;;12.79;76.32;100036.09;5026058;28;20108;-67
2022/12/30 02:25:10;;;;;;;1.67;1.55;;;;;;;12.79;76.29;100035.25;5030563;28;20411;-67
2022/12/30 02:28:02;;;;;;;2.80;1.27;;;;;;;12.78;76.22;100044.09;5027562;28;20029;-67
2022/12/30 02:31:10;;;;;;;4.88;1.95;;;;;;;12.79;76.35;100048.38;4995950;28;20046;-67
2022/12/30 02:34:03;;;;;;;1.88;1.48;;;;;;;12.77;76.28;100037.19;5025179;28;20511;-67
2022/12/30 02:36:29;;;;;;;3.13;1.23;;;;;;;12.77;76.44;100031.94;5007401;28;20037;-67
2022/12/30 02:39:13;;;;;;;1.92;1.60;;;;;;;12.77;76.36;100042.41;5028430;28;20574;-67
2022/12/30 02:44:41;;;;;;;2.08;1.52;;;;;;;12.76;76.31;100056.47;5028505;28;20041;-67
2022/12/30 02:47:28;;;;;;;2.13;1.60;;;;;;;12.75;76.45;100065.28;5027863;28;20062;-67
2022/12/30 02:52:51;;;;;;;2.22;1.38;;;;;;;12.75;76.45;100079.22;5029103;28;20052;-67
2022/12/30 02:55:18;;;;;;;2.17;1.52;;;;;;;12.73;76.43;100074.09;5013018;28;20037;-67
2022/12/30 02:57:44;;;;;;;2.08;1.20;;;;;;;12.72;76.29;100082.94;5025622;28;20045;-67
2022/12/30 03:06:10;;;;;;;1.58;1.17;;;;;;;12.73;76.33;100065.41;5009002;28;20506;-66
2022/12/30 03:08:48;;;;;;;2.47;2.08;;;;;;;12.73;76.27;100068.84;4996463;28;20037;-66
2022/12/30 03:11:17;;;;;;;2.67;1.80;;;;;;;12.73;76.25;100068.84;5008434;28;20038;-67
2022/12/30 03:14:02;;;;;;;2.22;1.50;;;;;;;12.73;76.30;100074.09;5011974;28;20037;-67
2022/12/30 03:16:48;;;;;;;1.15;1.05;;;;;;;12.73;76.21;100062.78;5013976;28;20054;-66
2022/12/30 03:19:21;;;;;;;2.88;1.98;;;;;;;12.72;75.98;100055.88;5012281;28;20037;-66
2022/12/30 03:21:51;;;;;;;2.33;1.10;;;;;;;12.73;76.35;100052.31;5029206;28;20038;-67
2022/12/30 03:27:13;;;;;;;1.33;1.20;;;;;;;12.72;76.70;100055.88;5026409;28;20029;-67
2022/12/30 03:30:01;;;;;;;2.08;1.52;;;;;;;12.72;76.47;100043.63;5028672;28;20487;-67
2022/12/30 03:32:27;;;;;;;1.60;1.50;;;;;;;12.72;76.30;100038.38;5015537;28;20045;-67
2022/12/30 03:34:53;;;;;;;1.50;0.98;;;;;;;12.71;76.29;100031.47;5016066;28;20037;-67
2022/12/30 03:37:41;;;;;;;1.95;1.50;;;;;;;12.71;76.17;100026.22;5024938;28;20041;-67
2022/12/30 03:40:14;;;;;;;2.03;1.73;;;;;;;12.71;76.34;100025.41;5027210;28;20033;-67
2022/12/30 03:42:40;;;;;;;2.65;1.63;;;;;;;12.71;76.09;100033.25;5028104;28;20037;-66
2022/12/30 03:45:07;;;;;;;2.00;1.77;;;;;;;12.70;76.03;100045.50;5035092;28;20046;-67
2022/12/30 03:47:33;;;;;;;2.22;1.50;;;;;;;12.70;76.09;100048.13;5022540;28;20084;-67
2022/12/30 03:49:59;;;;;;;3.97;1.17;;;;;;;12.70;76.19;100048.13;4997141;28;20041;-67
2022/12/30 03:52:27;;;;;;;1.52;1.40;;;;;;;12.71;76.19;100051.59;5028697;28;20030;-67
2022/12/30 03:54:56;;;;;;;2.30;1.40;;;;;;;12.70;75.97;100048.13;5029440;28;20045;-67
2022/12/30 03:57:22;;;;;;;2.45;1.20;;;;;;;12.70;76.26;100053.38;5022375;28;20041;-67
2022/12/30 03:59:48;;;;;;;2.80;1.20;;;;;;;12.70;76.07;100049.91;5010792;28;20423;-66
2022/12/30 04:02:17;;;;;;;2.25;1.88;;;;;;;12.70;76.09;100052.53;5027120;28;20620;-67
2022/12/30 04:04:46;;;;;;;2.15;1.20;;;;;;;12.69;76.12;100056.97;5027048;28;20048;-67
2022/12/30 04:07:15;;;;;;;2.05;1.48;;;;;;;12.70;76.08;100057.78;5026459;28;20037;-67
2022/12/30 04:09:43;;;;;;;1.98;1.20;;;;;;;12.69;76.10;100056.09;5025718;28;20049;-67
2022/12/30 04:12:16;;;;;;;3.75;1.20;;;;;;;12.69;76.08;100056.97;5019107;28;20041;-67
2022/12/30 04:14:45;;;;;;;1.45;1.30;;;;;;;12.68;75.87;100057.06;5027027;28;20427;-67
2022/12/30 04:17:15;;;;;;;1.70;1.05;;;;;;;12.69;76.03;100061.34;4980961;28;20041;-67
2022/12/30 04:19:41;;;;;;;1.63;1.52;;;;;;;12.68;76.34;100055.28;4997890;28;20037;-67
2022/12/30 04:22:08;;;;;;;1.50;1.38;;;;;;;12.67;76.16;100051.00;5009466;28;20039;-67
2022/12/30 04:24:36;;;;;;;1.98;1.80;;;;;;;12.68;75.81;100041.34;5030226;28;20036;-66
2022/12/30 04:27:04;;;;;;;1.52;0.90;;;;;;;12.67;75.98;100040.53;5026359;28;20049;-67
2022/12/30 04:29:33;;;;;;;1.25;1.02;;;;;;;12.67;75.98;100027.41;5011593;28;20041;-67
2022/12/30 04:32:02;;;;;;;1.98;1.20;;;;;;;12.66;76.29;100020.50;4993248;28;20038;-66
2022/12/30 04:34:33;;;;;;;2.03;1.00;;;;;;;12.67;76.13;100027.41;5013301;28;20041;-66
2022/12/30 04:37:01;;;;;;;2.10;1.85;;;;;;;12.68;76.13;100031.69;5017212;28;20057;-66
2022/12/30 04:39:27;;;;;;;2.95;1.55;;;;;;;12.66;76.10;100028.38;4992908;28;20063;-67
2022/12/30 04:41:54;;;;;;;1.58;1.40;;;;;;;12.66;76.15;100025.75;5025427;28;20048;-67
2022/12/30 04:44:25;;;;;;;0.88;0.85;;;;;;;12.66;76.07;100012.63;5010510;28;20041;-67
2022/12/30 04:46:51;;;;;;;1.92;1.35;;;;;;;12.67;75.99;100023.94;5026709;28;20064;-67
2022/12/30 04:49:19;;;;;;;2.08;1.40;;;;;;;12.66;75.83;100040.63;5013182;28;20036;-67
2022/12/30 04:51:47;;;;;;;2.40;1.33;;;;;;;12.65;76.07;100042.41;5019804;28;20488;-70
2022/12/30 04:54:14;;;;;;;2.08;1.25;;;;;;;12.66;75.93;100045.88;4995706;28;20029;-67
2022/12/30 04:56:42;;;;;;;2.47;1.10;;;;;;;12.67;75.82;100042.28;5021575;28;20037;-67
2022/12/30 04:59:08;;;;;;;1.52;0.90;;;;;;;12.67;75.95;100040.53;5017637;28;20041;-67
2022/12/30 05:01:37;;;;;;;1.83;1.20;;;;;;;12.67;75.93;100030.03;5026447;28;20083;-67
2022/12/30 05:04:06;;;;;;;1.45;1.10;;;;;;;12.69;75.86;100046.47;5025456;28;20044;-67
2022/12/30 05:06:32;;;;;;;2.05;1.67;;;;;;;12.70;75.83;100042.06;5018851;28;20037;-67
2022/12/30 05:09:01;;;;;;;1.55;1.10;;;;;;;12.69;75.99;100048.25;5008727;28;20044;-67
2022/12/30 05:11:27;;;;;;;2.55;2.15;;;;;;;12.70;75.92;100049.91;5026549;28;20045;-67
2022/12/30 05:13:58;;;;;;;1.15;1.05;;;;;;;12.70;75.82;100042.88;4990824;28;20033;-67
2022/12/30 05:16:26;;;;;;;2.75;1.85;;;;;;;12.69;75.74;100036.00;5000041;28;20045;-67
2022/12/30 05:18:52;;;;;;;1.42;1.25;;;;;;;12.68;75.64;100039.56;4986192;28;20030;-67
2022/12/30 05:21:19;;;;;;;1.17;1.00;;;;;;;12.69;75.83;100041.22;4991083;28;20510;-67
2022/12/30 05:26:34;;;;;;;1.48;0.95;;;;;;;12.68;75.84;100050.03;5015016;28;20037;-67
2022/12/30 05:29:02;;;;;;;1.80;1.17;;;;;;;12.68;75.86;100051.81;5010402;28;20033;-67
2022/12/30 05:31:28;;;;;;;2.42;0.77;;;;;;;12.67;75.71;100056.25;5009894;28;20041;-67
2022/12/30 05:33:54;;;;;;;1.20;0.95;;;;;;;12.67;75.71;100052.78;5017283;28;20042;-67
2022/12/30 05:36:23;;;;;;;2.10;1.60;;;;;;;12.66;75.81;100059.81;5024099;28;20361;-67
2022/12/30 05:38:54;;;;;;;3.38;2.08;;;;;;;12.66;75.75;100057.19;5015822;28;20040;-67
2022/12/30 05:41:22;;;;;;;1.65;1.55;;;;;;;12.65;75.71;100059.91;5023700;28;20052;-67
2022/12/30 05:43:51;;;;;;;1.40;1.13;;;;;;;12.65;75.87;100066.00;5027889;28;20029;-67
2022/12/30 05:46:17;;;;;;;2.35;1.85;;;;;;;12.65;75.68;100062.53;5021518;28;20033;-67
2022/12/30 05:48:48;;;;;;;2.47;1.13;;;;;;;12.64;75.76;100066.97;5029084;28;20041;-67
2022/12/30 05:51:14;;;;;;;2.33;1.13;;;;;;;12.63;75.79;100067.91;4985328;28;20045;-67
2022/12/30 05:53:43;;;;;;;2.78;1.50;;;;;;;12.64;75.90;100069.56;5005257;28;20045;-67
2022/12/30 05:56:11;;;;;;;1.55;1.30;;;;;;;12.65;75.77;100065.16;5028278;28;20067;-67
2022/12/30 05:58:40;;;;;;;2.10;1.63;;;;;;;12.62;75.85;100063.63;5010461;28;20399;-67
2022/12/30 06:01:08;;;;;;;1.85;1.08;;;;;;;12.64;75.71;100068.72;5021121;28;20042;-68
2022/12/30 06:03:37;;;;;;;2.53;1.80;;;;;;;12.64;75.83;100073.97;4978366;28;20049;-68
2022/12/30 06:06:06;;;;;;;1.48;1.30;;;;;;;12.64;75.76;100076.59;5028281;22;20052;-69
2022/12/30 06:08:36;;;;;;;2.22;1.90;;;;;;;12.63;75.83;100077.56;5019095;28;20041;-69
2022/12/30 06:11:02;;;;;;;2.80;1.67;;;;;;;12.64;75.93;100077.44;5035349;28;20052;-69
2022/12/30 06:13:28;;;;;;;2.03;0.90;;;;;;;12.64;75.61;100077.44;5037588;28;20036;-69
2022/12/30 06:15:54;;;;;;;2.35;2.13;;;;;;;12.64;75.68;100085.31;5034527;28;20477;-69
2022/12/30 06:18:22;;;;;;;1.00;0.77;;;;;;;12.63;75.64;100088.84;5035568;28;20489;-69
2022/12/30 06:20:51;;;;;;;1.27;1.05;;;;;;;12.63;75.79;100078.38;5033714;28;21733;-69
2022/12/30 06:23:17;;;;;;;1.45;1.27;;;;;;;12.63;75.85;100078.38;5034486;28;20037;-69
2022/12/30 06:25:43;;;;;;;1.58;1.00;;;;;;;12.64;75.69;100084.44;5030770;28;20045;-69
2022/12/30 06:28:14;;;;;;;2.00;1.67;;;;;;;12.64;75.67;100087.06;5047655;28;20059;-69
2022/12/30 06:30:48;;;;;;;2.20;1.38;;;;;;;12.63;75.78;100083.63;5029913;28;20503;-69
2022/12/30 06:33:17;;;;;;;1.40;0.82;;;;;;;12.62;75.66;100084.59;5049920;28;20032;-69
2022/12/30 06:35:51;;;;;;;2.03;1.40;;;;;;;12.63;75.71;100095.91;5048430;28;20534;-68
2022/12/30 06:38:20;;;;;;;2.10;1.42;;;;;;;12.62;75.61;100092.44;5048967;28;20033;-69
2022/12/30 06:40:48;;;;;;;1.45;1.35;;;;;;;12.62;75.42;100092.44;5048479;28;20028;-69
2022/12/30 06:43:15;;;;;;;1.58;1.08;;;;;;;12.62;75.63;100088.97;5049805;28;20039;-69
2022/12/30 06:45:41;;;;;;;1.85;1.05;;;;;;;12.62;75.80;100079.34;5048781;28;20048;-69
2022/12/30 06:48:08;;;;;;;1.17;0.93;;;;;;;12.62;75.32;100081.97;5037605;28;20029;-69
2022/12/30 06:50:38;;;;;;;1.40;1.23;;;;;;;12.62;75.64;100084.59;5040531;28;20048;-69
2022/12/30 06:53:12;;;;;;;2.53;1.23;;;;;;;12.62;75.48;100081.13;5044386;28;20029;-68
2022/12/30 06:55:42;;;;;;;1.60;1.05;;;;;;;12.62;75.69;100073.25;5046133;28;20406;-69
2022/12/30 06:58:09;;;;;;;1.42;1.00;;;;;;;12.61;75.55;100077.66;5049940;28;20426;-69
2022/12/30 07:00:40;;;;;;;1.45;1.35;;;;;;;12.61;75.74;100085.53;5045545;28;20518;-69
2022/12/30 07:03:06;;;;;;;1.48;1.23;;;;;;;12.61;75.73;100075.03;5039202;28;20044;-69
2022/12/30 07:05:34;;;;;;;2.17;1.00;;;;;;;12.62;75.58;100079.34;5033206;28;20032;-69
2022/12/30 07:08:00;;;;;;;1.20;1.10;;;;;;;12.62;75.68;100079.34;5038092;28;20048;-69
2022/12/30 07:10:32;;;;;;;2.08;1.02;;;;;;;12.61;76.06;100071.59;5036655;28;20051;-69
2022/12/30 07:13:00;;;;;;;1.15;1.00;;;;;;;12.63;75.63;100093.28;5037036;28;20037;-69
2022/12/30 07:15:33;;;;;;;1.30;1.02;;;;;;;12.63;75.55;100090.66;5037940;28;20033;-68
2022/12/30 07:18:02;;;;;;;1.30;1.08;;;;;;;12.63;75.59;100085.41;5049840;28;20033;-68
2022/12/30 07:20:30;;;;;;;1.95;1.10;;;;;;;12.63;75.45;100082.78;5045570;28;20037;-68
2022/12/30 07:22:56;;;;;;;2.45;1.73;;;;;;;12.64;75.63;100089.69;5046160;28;20032;-68
2022/12/30 07:25:25;;;;;;;2.17;1.65;;;;;;;12.63;75.78;100078.38;5048113;28;20418;-68
2022/12/30 07:28:01;;;;;;;1.60;0.98;;;;;;;12.64;75.53;100076.59;5047109;28;20056;-69
2022/12/30 07:30:31;;;;;;;1.48;0.98;;;;;;;12.64;75.49;100081.81;5050644;28;20103;-68
2022/12/30 07:33:02;;;;;;;1.58;1.48;;;;;;;12.63;75.42;100073.13;5012250;28;20041;-71
2022/12/30 07:35:30;;;;;;;1.85;1.00;;;;;;;12.63;75.83;100070.50;5046951;28;20032;-71
2022/12/30 07:37:59;;;;;;;1.58;1.17;;;;;;;12.63;75.48;100070.50;5032052;28;20041;-71
2022/12/30 07:40:25;;;;;;;1.65;0.98;;;;;;;12.62;75.52;100061.00;5044678;28;20063;-70
2022/12/30 07:42:55;;;;;;;1.75;1.42;;;;;;;12.62;75.64;100053.16;5048552;28;20475;-70
2022/12/30 07:45:23;;;;;;;3.00;1.55;;;;;;;12.62;75.72;100061.00;5031878;28;20041;-71
2022/12/30 07:47:49;;;;;;;2.10;0.95;;;;;;;12.63;75.40;100048.72;5030305;28;20043;-71
2022/12/30 07:50:15;;;;;;;1.98;1.55;;;;;;;12.63;75.48;100051.34;5046981;28;20033;-71
2022/12/30 07:52:48;;;;;;;1.25;1.00;;;;;;;12.62;75.75;100055.78;5027094;28;20040;-70
2022/12/30 07:55:17;;;;;;;1.92;1.33;;;;;;;12.61;75.41;100054.09;5048268;28;20021;-71
2022/12/30 07:57:45;;;;;;;1.05;0.80;;;;;;;12.62;75.46;100052.28;5045197;28;20041;-71
2022/12/30 08:00:14;;;;;;;1.17;0.95;;;;;;;12.62;75.49;100049.66;5048463;28;20403;-71
2022/12/30 08:02:41;;;;;;;1.48;1.00;;;;;;;12.62;75.67;100055.78;5028854;28;20399;-71
2022/12/30 08:05:07;;;;;;;0.98;0.98;;;;;;;12.62;75.48;100052.28;5049083;28;20083;-71
2022/12/30 08:07:36;;;;;;;2.17;1.20;;;;;;;12.61;75.61;100048.84;5047089;28;20400;-71
2022/12/30 08:10:05;;;;;;;1.50;0.90;;;;;;;12.62;75.44;100055.78;5048133;28;20033;-71
2022/12/30 08:12:36;;;;;;;1.05;0.75;;;;;;;12.62;75.61;100053.16;5047228;28;20033;-71
2022/12/30 08:15:05;;;;;;;;;;;;;;;12.62;75.49;100054.91;5041534;28;20033;-71
2022/12/30 08:17:33;;;;;;;1.27;1.17;;;;;;;12.62;75.38;100042.66;5015046;28;19913;-70
2022/12/30 08:19:59;;;;;;;1.30;0.93;;;;;;;12.62;75.46;100042.66;5049235;28;20403;-71
2022/12/30 08:22:30;;;;;;;1.38;1.27;;;;;;;12.64;75.43;100037.28;5028768;28;20037;-71
2022/12/30 08:24:58;;;;;;;1.67;1.58;;;;;;;12.63;75.45;100035.63;5049904;28;20376;-71
2022/12/30 08:27:28;;;;;;;1.30;0.88;;;;;;;12.63;75.44;100043.50;5045465;28;20037;-71
2022/12/30 08:30:01;;;;;;;1.17;0.80;;;;;;;12.63;75.44;100019.91;5052800;28;20035;-71
2022/12/30 08:32:31;;;;;;;;;;;;;;;12.63;75.40;100015.50;5032891;28;20483;-70
2022/12/30 08:34:58;;;;;;;1.27;0.90;;;;;;;12.62;75.53;100013.84;5050219;28;19920;-70
2022/12/30 08:37:28;;;;;;;1.67;0.90;;;;;;;12.63;75.58;100014.66;5044698;28;20037;-70
2022/12/30 08:39:57;;;;;;;1.58;1.23;;;;;;;12.63;75.38;100005.00;5041417;28;20040;-71
2022/12/30 08:42:25;;;;;;;1.42;1.15;;;;;;;12.63;75.30;100007.63;5044251;28;20036;-71
2022/12/30 08:44:56;;;;;;;1.30;1.13;;;;;;;12.63;75.39;100002.38;5046503;28;20064;-71
2022/12/30 08:47:22;;;;;;;1.50;1.30;;;;;;;12.63;75.47;99997.16;5044905;28;20399;-70
2022/12/30 08:49:51;;;;;;;1.80;1.10;;;;;;;12.63;75.43;99996.31;5048354;28;20029;-71
2022/12/30 08:52:19;;;;;;;1.02;0.93;;;;;;;12.64;75.47;99987.50;5045224;28;20044;-71
2022/12/30 08:54:50;;;;;;;1.27;1.15;;;;;;;12.63;75.40;99981.44;5047601;28;20036;-70
2022/12/30 08:57:20;;;;;;;2.03;1.92;;;;;;;12.64;75.43;99984.88;5045638;28;20037;-71
2022/12/30 08:59:49;;;;;;;1.17;1.08;;;;;;;12.64;75.41;99977.88;5043532;28;20044;-71
2022/12/30 09:02:20;;;;;;;2.85;1.10;;;;;;;12.64;75.30;99972.63;5047048;28;20514;-71
2022/12/30 09:04:51;;;;;;;1.77;1.42;;;;;;;12.65;75.45;99971.66;5037138;28;20044;-71
2022/12/30 09:07:17;;;;;;;0.70;0.70;;;;;;;12.65;75.46;99976.06;5046509;28;20037;-71
2022/12/30 09:09:43;;;;;;;1.42;1.20;;;;;;;12.65;75.42;99974.28;5045416;28;20033;-71
2022/12/30 09:12:11;;;;;;;1.00;0.90;;;;;;;12.65;75.17;99969.03;5048681;28;20029;-71
2022/12/30 09:14:40;;;;;;;1.92;0.90;;;;;;;12.65;75.28;99974.28;5048977;28;20033;-71
2022/12/30 09:17:06;;;;;;;1.58;0.90;;;;;;;12.67;75.22;99982.03;5045619;28;20037;-71
2022/12/30 09:19:34;;;;;;;1.00;0.88;;;;;;;12.67;75.39;99982.03;5046236;28;20041;-71
2022/12/30 09:22:05;;;;;;;1.40;0.80;;;;;;;12.66;75.46;99983.81;5041762;28;20033;-71
2022/12/30 09:24:36;;;;;;;1.73;1.08;;;;;;;12.67;75.18;99989.88;5048222;28;20395;-71
2022/12/30 09:27:02;;;;;;;1.20;1.05;;;;;;;12.66;75.11;99986.44;5044965;28;20041;-71
2022/12/30 09:29:28;;;;;;;2.30;0.90;;;;;;;12.67;75.17;99982.88;5048399;28;20056;-71
2022/12/30 09:31:54;;;;;;;2.97;1.45;;;;;;;12.67;75.34;99975.00;5043131;28;20051;-71
2022/12/30 09:34:20;;;;;;;1.55;1.05;;;;;;;12.66;75.30;99970.72;5045864;28;20051;-71
2022/12/30 09:36:48;;;;;;;2.58;1.67;;;;;;;12.67;75.22;99969.78;5046071;28;20044;-71
2022/12/30 09:39:30;;;;;;;0.95;0.85;;;;;;;12.67;75.21;99963.69;5046746;28;20033;-71
2022/12/30 09:44:57;;;;;;;1.92;0.93;;;;;;;12.67;75.20;99940.94;5047947;28;20403;-71
2022/12/30 09:47:28;;;;;;;1.10;0.95;;;;;;;12.67;75.26;99934.84;5048719;28;20494;-71
2022/12/30 09:49:56;;;;;;;;;;;;;;;12.67;75.23;99924.38;5051203;28;20029;-71
2022/12/30 09:52:32;;;;;;;1.70;1.60;;;;;;;12.67;75.19;99911.28;5050285;28;19913;-71
2022/12/30 09:55:05;;;;;;;2.53;1.10;;;;;;;12.67;75.17;99908.66;5047775;28;20032;-71
2022/12/30 09:57:37;;;;;;;1.70;1.60;;;;;;;12.67;75.37;99912.13;5046634;28;20044;-71
2022/12/30 10:00:18;;;;;;;1.73;1.23;;;;;;;12.68;75.26;99923.44;5045785;28;20699;-71
2022/12/30 10:03:05;;;;;;;0.90;0.88;;;;;;;12.67;75.40;99922.59;5062410;28;20051;-71
2022/12/30 10:05:51;;;;;;;1.50;1.10;;;;;;;12.67;75.40;99911.28;5050358;28;20033;-71
2022/12/30 10:08:47;;;;;;;1.67;1.15;;;;;;;12.66;75.31;99905.22;5046083;28;20060;-71
2022/12/30 10:11:34;;;;;;;1.10;1.00;;;;;;;12.67;75.31;99900.78;5013919;28;20047;-71
2022/12/30 10:14:32;;;;;;;3.70;0.80;;;;;;;12.67;75.29;99885.06;5046169;28;20047;-71
2022/12/30 10:17:10;;;;;;;1.30;0.60;;;;;;;12.67;75.33;99895.53;5034764;28;20045;-71
2022/12/30 10:19:47;;;;;;;1.40;1.02;;;;;;;12.66;75.12;99889.47;5046164;28;20045;-71
2022/12/30 10:22:27;;;;;;;2.08;1.67;;;;;;;12.67;75.38;99875.44;5029589;28;20051;-71
2022/12/30 10:25:10;;;;;;;1.25;0.93;;;;;;;12.67;75.21;99871.97;5046925;28;20695;-71
2022/12/30 10:27:39;;;;;;;1.60;1.00;;;;;;;12.67;75.34;99872.81;5046333;28;20383;-71
2022/12/30 10:30:18;;;;;;;0.98;0.68;;;;;;;12.68;75.22;99865.78;5028201;28;20442;-71
2022/12/30 10:32:55;;;;;;;2.72;0.98;;;;;;;12.67;75.31;99875.44;5049403;28;20036;-71
2022/12/30 10:35:26;;;;;;;1.52;0.90;;;;;;;12.68;75.24;99871.03;5048950;28;20395;-71
2022/12/30 10:38:03;;;;;;;0.82;0.77;;;;;;;12.67;75.17;99856.25;5045586;28;20041;-71
2022/12/30 10:40:48;;;;;;;1.58;1.10;;;;;;;12.68;75.20;99852.69;5048437;28;20052;-71
2022/12/30 10:43:40;;;;;;;0.60;0.60;;;;;;;12.69;75.34;99857.78;5046712;28;20041;-71
2022/12/30 10:46:36;;;;;;;1.38;1.15;;;;;;;12.69;75.12;99847.31;5030304;28;20045;-71
2022/12/30 10:49:24;;;;;;;0.90;0.70;;;;;;;12.69;75.15;99847.31;5046424;28;20037;-71
2022/12/30 10:51:50;;;;;;;1.63;1.40;;;;;;;12.72;75.11;99828.72;5049543;28;20037;-71
2022/12/30 10:54:21;;;;;;;1.55;0.77;;;;;;;12.81;74.98;99819.28;5046412;28;20029;-71
2022/12/30 10:56:52;;;;;;;1.38;0.90;;;;;;;12.88;74.61;99809.97;5047479;28;20033;-71
2022/12/30 10:59:27;;;;;;;1.17;1.08;;;;;;;12.97;74.76;99805.75;5048016;28;20037;-71
2022/12/30 11:02:11;;;;;;;1.67;1.40;;;;;;;13.04;74.55;99800.84;5054249;28;20514;-71
2022/12/30 11:04:42;;;;;;;1.52;1.13;;;;;;;13.10;74.38;99798.53;5050526;28;20041;-71
2022/12/30 11:07:13;;;;;;;1.00;0.80;;;;;;;13.15;74.13;99784.19;5043507;28;20402;-71
2022/12/30 11:09:40;;;;;;;1.38;1.05;;;;;;;13.18;74.26;99770.84;5047704;28;20752;-71
2022/12/30 11:15:21;;;;;;;0.90;0.90;;;;;;;13.25;73.87;99775.44;5044322;28;20041;-71
2022/12/30 11:17:59;;;;;;;1.23;1.13;;;;;;;13.29;74.13;99776.84;5032571;28;20475;-71
2022/12/30 11:20:29;;;;;;;1.58;1.48;;;;;;;13.31;73.99;99776.72;5030136;28;20052;-71
2022/12/30 11:22:58;;;;;;;1.60;1.13;;;;;;;13.33;74.06;99782.69;5031827;28;20040;-71
2022/12/30 11:25:33;;;;;;;1.83;1.20;;;;;;;13.36;73.90;99782.44;5047147;28;20029;-72
2022/12/30 11:28:02;;;;;;;0.95;0.82;;;;;;;13.38;73.84;99775.25;5048386;28;20032;-71
2022/12/30 11:30:37;;;;;;;1.25;1.15;;;;;;;13.40;73.82;99783.00;5030311;28;20044;-71
2022/12/30 11:33:05;;;;;;;1.58;0.80;;;;;;;13.41;74.24;99774.19;5049635;28;20045;-71
2022/12/30 11:35:42;;;;;;;3.28;1.13;;;;;;;13.42;73.89;99760.91;5048742;28;20032;-71
2022/12/30 11:38:39;;;;;;;1.13;1.02;;;;;;;13.45;74.08;99763.28;5047407;28;20036;-71
2022/12/30 11:41:29;;;;;;;1.55;1.00;;;;;;;13.47;73.98;99753.47;5021659;28;20052;-71
2022/12/30 11:44:00;;;;;;;1.52;1.08;;;;;;;13.50;74.05;99751.59;5028218;28;20029;-71
2022/12/30 11:46:34;;;;;;;2.33;1.05;;;;;;;13.50;73.86;99744.53;5050753;28;20036;-69
2022/12/30 11:49:14;;;;;;;1.27;1.10;;;;;;;13.52;73.94;99739.16;5026498;28;20040;-71
2022/12/30 11:51:47;;;;;;;1.58;1.17;;;;;;;13.55;73.77;99737.09;5045069;28;20036;-71
2022/12/30 11:54:18;;;;;;;1.38;1.27;;;;;;;13.56;73.93;99730.91;5044254;28;20040;-71
2022/12/30 11:57:06;;;;;;;1.30;0.80;;;;;;;13.58;74.00;99715.84;5048357;28;20495;-71
2022/12/30 11:59:58;;;;;;;1.50;0.90;;;;;;;13.60;73.95;99702.59;5044557;28;20037;-71
2022/12/30 12:02:31;;;;;;;1.27;1.17;;;;;;;13.62;73.89;99698.03;5047264;28;20474;-71
2022/12/30 12:04:57;;;;;;;0.85;0.82;;;;;;;13.64;73.94;99685.59;5044377;28;20055;-71
2022/12/30 12:07:43;;;;;;;0.85;0.77;;;;;;;13.65;73.83;99687.28;5047169;22;20053;-67
2022/12/30 12:10:34;;;;;;;1.90;0.80;;;;;;;13.68;73.84;99691.41;5005071;28;20041;-66
2022/12/30 12:13:23;;;;;;;1.30;1.05;;;;;;;13.68;73.99;99680.91;5022707;28;20052;-66
2022/12/30 12:15:55;;;;;;;0.90;0.82;;;;;;;13.70;73.95;99671.97;5024877;28;20052;-66
2022/12/30 12:18:43;;;;;;;1.30;1.20;;;;;;;13.71;74.09;99680.66;5023510;28;20045;-66
2022/12/30 12:21:29;;;;;;;0.88;0.77;;;;;;;13.73;73.95;99676.09;5018990;28;20037;-66
2022/12/30 12:24:07;;;;;;;2.30;1.25;;;;;;;13.76;74.01;99686.34;5023674;28;20036;-66
2022/12/30 12:26:41;;;;;;;0.98;0.90;;;;;;;13.78;73.85;99681.78;5027937;28;20046;-66
2022/12/30 12:29:12;;;;;;;1.25;1.15;;;;;;;13.79;73.88;99675.56;5021747;28;20037;-66
2022/12/30 12:31:38;;;;;;;1.25;1.10;;;;;;;13.78;73.90;99672.09;5029443;28;20037;-66
2022/12/30 12:34:11;;;;;;;1.65;1.15;;;;;;;13.80;73.78;99664.94;5023134;28;20037;-66
2022/12/30 12:36:56;;;;;;;1.00;0.60;;;;;;;13.82;73.78;99664.81;5028338;28;20483;-66
2022/12/30 12:40:00;;;;;;;1.50;1.10;;;;;;;13.83;73.92;99669.94;5022312;28;20033;-66
2022/12/30 12:42:37;;;;;;;1.00;0.93;;;;;;;13.88;73.91;99685.25;5028142;28;20033;-66